Time;durP1;ratioP1;P1;durP2;ratioP2;P2;SDS_P1;SDS_P2;PMS_P1;PMS_P2;Temp;Humidity;BMP_temperature;BMP_pressure;BME280_temperature;BME280_humidity;BME280_pressure;Samples;Min_cycle;Max_cycle;Signal;HPM_P1;HPM_P2
2022/04/05 00:00:13;;;;;;;10.23;6.22;;;;;;;4.12;71.24;99888.81;5570656;32;34146;-64
2022/04/05 00:03:16;;;;;;;8.00;5.65;;;;;;;4.11;71.55;99872.25;5570561;32;33918;-63
2022/04/05 00:06:19;;;;;;;11.60;6.65;;;;;;;4.06;71.65;99878.87;5570560;32;34056;-63
2022/04/05 00:09:22;;;;;;;11.05;6.40;;;;;;;4.02;71.97;99874.88;5570706;32;33913;-63
2022/04/05 00:12:25;;;;;;;9.75;6.18;;;;;;;3.90;72.61;99868.94;5570484;32;34078;-63
2022/04/05 00:15:29;;;;;;;9.88;6.30;;;;;;;3.77;73.61;99866.59;5570550;32;33930;-63
2022/04/05 00:18:31;;;;;;;10.43;6.80;;;;;;;3.76;74.09;99861.47;5570425;32;34649;-63
2022/04/05 00:21:34;;;;;;;9.10;6.57;;;;;;;3.70;74.76;99854.97;5570073;32;34276;-63
2022/04/05 00:24:37;;;;;;;12.05;5.85;;;;;;;3.70;74.91;99857.59;5569733;32;33947;-63
2022/04/05 00:27:40;;;;;;;10.05;6.72;;;;;;;3.74;74.95;99858.13;5556777;32;34756;-63
2022/04/05 00:30:42;;;;;;;10.63;6.03;;;;;;;3.79;74.96;99851.53;5570568;32;34199;-63
2022/04/05 00:33:45;;;;;;;9.02;5.35;;;;;;;3.61;76.13;99850.56;5570702;32;33951;-63
2022/04/05 00:36:48;;;;;;;11.00;5.55;;;;;;;3.67;76.55;99847.38;5570753;32;34002;-63
2022/04/05 00:39:50;;;;;;;11.98;5.62;;;;;;;3.75;76.04;99855.38;5570278;32;33981;-63
2022/04/05 00:42:54;;;;;;;8.38;5.28;;;;;;;3.71;77.37;99853.19;5570563;32;34582;-63
2022/04/05 00:45:57;;;;;;;11.52;5.75;;;;;;;3.71;76.47;99847.94;5570226;32;35252;-63
2022/04/05 00:49:01;;;;;;;14.55;5.85;;;;;;;3.70;77.32;99849.72;5570171;32;34682;-64
2022/04/05 00:52:04;;;;;;;11.43;5.85;;;;;;;3.81;76.05;99862.72;5570197;32;34156;-63
2022/04/05 00:55:07;;;;;;;9.38;5.43;;;;;;;3.80;76.87;99849.72;5570372;32;33947;-63
2022/04/05 00:58:14;;;;;;;12.50;5.60;;;;;;;3.82;77.33;99839.94;5570235;32;34075;-63
2022/04/05 01:01:19;;;;;;;13.30;5.82;;;;;;;3.87;78.04;99832.47;5570088;32;35238;-63
2022/04/05 01:04:22;;;;;;;9.68;5.78;;;;;;;3.86;77.85;99831.66;5570049;32;34092;-63
2022/04/05 01:07:27;;;;;;;10.90;5.75;;;;;;;3.90;79.47;99840.06;5569971;32;34686;-63
2022/04/05 01:10:30;;;;;;;11.18;5.37;;;;;;;3.86;78.25;99834.28;5570335;32;33939;-63
2022/04/05 01:13:32;;;;;;;8.88;5.43;;;;;;;3.92;77.14;99833.69;5570378;32;34290;-63
2022/04/05 01:16:38;;;;;;;9.55;5.80;;;;;;;4.01;76.50;99831.22;5569901;32;33922;-63
2022/04/05 01:19:42;;;;;;;8.07;5.18;;;;;;;4.06;77.11;99829.00;5570026;32;33940;-63
2022/04/05 01:22:50;;;;;;;7.45;5.37;;;;;;;4.10;76.45;99841.72;5569770;32;35448;-63
2022/04/05 01:25:52;;;;;;;8.05;5.07;;;;;;;4.12;76.84;99831.06;5570272;32;34298;-63
2022/04/05 01:28:55;;;;;;;12.43;5.75;;;;;;;4.11;77.33;99839.94;5569821;31;34017;-63
2022/04/05 01:32:07;;;;;;;8.57;4.97;;;;;;;4.13;76.86;99830.09;5569862;32;33998;-63
2022/04/05 01:35:10;;;;;;;8.98;5.25;;;;;;;4.20;75.98;99828.59;5569588;32;34047;-63
2022/04/05 01:38:13;;;;;;;8.77;5.07;;;;;;;4.25;76.20;99837.69;5570065;32;34591;-63
2022/04/05 01:41:16;;;;;;;8.93;6.05;;;;;;;4.27;76.86;99830.50;5569605;32;35288;-63
2022/04/05 01:44:19;;;;;;;10.50;6.70;;;;;;;3.87;79.38;99829.84;5570003;32;33915;-63
2022/04/05 01:47:22;;;;;;;10.25;6.43;;;;;;;3.68;81.23;99837.72;5569641;32;34608;-63
2022/04/05 01:50:25;;;;;;;12.37;7.20;;;;;;;3.53;81.89;99839.91;5569463;32;34191;-63
2022/04/05 01:53:28;;;;;;;10.10;6.57;;;;;;;3.46;83.56;99837.00;5569465;32;34276;-65
2022/04/05 01:56:31;;;;;;;11.40;7.45;;;;;;;3.46;83.35;99826.50;5569439;32;35190;-64
2022/04/05 01:59:36;;;;;;;11.95;7.22;;;;;;;3.30;84.23;99830.59;5569504;32;34019;-64
2022/04/05 02:02:39;;;;;;;13.30;7.55;;;;;;;3.20;84.50;99824.50;5569779;32;33907;-64
2022/04/05 02:05:42;;;;;;;10.23;7.35;;;;;;;3.18;84.66;99818.59;5569377;32;34655;-63
2022/04/05 02:08:45;;;;;;;13.13;8.48;;;;;;;3.17;84.99;99807.28;5569142;32;33942;-64
2022/04/05 02:11:48;;;;;;;12.35;8.48;;;;;;;3.21;85.10;99794.72;5569568;32;34025;-64
2022/04/05 02:14:54;;;;;;;16.30;8.57;;;;;;;3.30;85.35;99807.00;5569467;32;34448;-64
2022/04/05 02:17:58;;;;;;;11.60;7.93;;;;;;;3.31;85.15;99800.81;5569131;32;33938;-64
2022/04/05 02:21:01;;;;;;;15.25;7.45;;;;;;;3.42;85.44;99812.03;5569329;32;34289;-64
2022/04/05 02:24:05;;;;;;;13.18;7.30;;;;;;;3.28;84.79;99801.94;5568771;32;34161;-63
2022/04/05 02:27:08;;;;;;;12.73;7.50;;;;;;;3.24;85.15;99797.94;5555128;32;32593;-63
2022/04/05 02:30:11;;;;;;;11.88;7.57;;;;;;;3.21;85.94;99794.72;5564222;32;143879;-64
2022/04/05 02:33:14;;;;;;;16.67;8.20;;;;;;;3.18;86.03;99787.13;5569135;32;35267;-63
2022/04/05 02:36:18;;;;;;;12.88;8.13;;;;;;;3.20;86.24;99791.28;5568887;32;34004;-64
2022/04/05 02:39:22;;;;;;;14.80;7.45;;;;;;;3.19;86.11;99784.41;5568680;32;33982;-64
2022/04/05 02:42:25;;;;;;;16.27;7.22;;;;;;;3.17;86.22;99788.94;5569049;32;34076;-64
2022/04/05 02:45:28;;;;;;;16.12;7.43;;;;;;;3.22;87.06;99788.53;5568894;32;33933;-64
2022/04/05 02:48:31;;;;;;;12.13;7.15;;;;;;;3.26;87.10;99788.13;5571191;32;34709;-64
2022/04/05 02:51:35;;;;;;;13.65;7.60;;;;;;;3.23;86.32;99783.16;5571509;32;34039;-64
2022/04/05 02:54:38;;;;;;;12.32;7.30;;;;;;;3.23;86.48;99769.22;5571136;32;34749;-64
2022/04/05 02:57:43;;;;;;;24.73;7.12;;;;;;;3.27;86.28;99776.66;5571330;32;32865;-64
2022/04/05 03:00:46;;;;;;;11.70;7.20;;;;;;;3.31;86.87;99770.19;5571237;32;33854;-64
2022/04/05 03:03:49;;;;;;;16.05;8.20;;;;;;;3.42;86.04;99782.34;5571112;32;33912;-64
2022/04/05 03:06:52;;;;;;;11.77;6.90;;;;;;;3.49;86.00;99770.31;5571031;32;33902;-63
2022/04/05 03:09:55;;;;;;;13.18;7.50;;;;;;;3.57;85.04;99767.88;5571096;32;34582;-64
2022/04/05 03:13:00;;;;;;;12.27;7.90;;;;;;;3.70;85.89;99770.19;5571358;32;34718;-63
2022/04/05 03:16:03;;;;;;;12.90;6.85;;;;;;;3.61;85.49;99771.87;5571074;32;33881;-64
2022/04/05 03:19:08;;;;;;;10.52;6.82;;;;;;;3.65;84.49;99754.03;5571008;32;34118;-64
2022/04/05 03:22:11;;;;;;;11.82;6.80;;;;;;;3.72;85.39;99758.63;5570964;32;34208;-64
2022/04/05 03:25:14;;;;;;;17.30;6.82;;;;;;;3.74;83.82;99751.41;5571330;32;34803;-64
2022/04/05 03:28:18;;;;;;;9.80;6.55;;;;;;;3.78;83.70;99754.56;5570904;32;34030;-64
2022/04/05 03:31:22;;;;;;;11.77;7.07;;;;;;;3.84;84.46;99749.63;5557537;32;33889;-64
2022/04/05 03:34:25;;;;;;;10.55;6.20;;;;;;;3.86;83.17;99749.47;5570716;32;34655;-64
2022/04/05 03:37:28;;;;;;;10.63;6.60;;;;;;;3.85;82.61;99743.41;5570713;32;34017;-64
2022/04/05 03:40:32;;;;;;;10.35;6.30;;;;;;;3.84;83.25;99741.75;5570680;32;35214;-64
2022/04/05 03:43:35;;;;;;;10.90;6.78;;;;;;;3.92;84.63;99739.22;5570733;32;33912;-64
2022/04/05 03:46:38;;;;;;;9.77;6.20;;;;;;;3.91;84.12;99734.97;5570975;32;35192;-64
2022/04/05 03:49:42;;;;;;;9.82;6.00;;;;;;;3.99;84.12;99736.88;5570598;32;34616;-65
2022/04/05 03:52:45;;;;;;;9.15;6.03;;;;;;;4.03;84.25;99725.13;5570631;32;33944;-65
2022/04/05 03:55:48;;;;;;;11.90;6.43;;;;;;;4.09;83.49;99728.97;5570583;32;35398;-65
2022/04/05 03:58:51;;;;;;;12.70;6.80;;;;;;;4.10;81.56;99730.66;5569588;32;34646;-65
2022/04/05 04:01:54;;;;;;;13.55;7.50;;;;;;;4.11;81.82;99729.69;5570956;32;34584;-64
2022/04/05 04:04:58;;;;;;;12.50;7.35;;;;;;;4.06;82.81;99734.53;5570556;32;34772;-65
2022/04/05 04:08:02;;;;;;;13.40;6.82;;;;;;;4.00;83.45;99735.09;5570465;32;34636;-65
2022/04/05 04:11:05;;;;;;;11.90;7.10;;;;;;;3.97;84.13;99738.81;5570524;32;33925;-64
2022/04/05 04:14:08;;;;;;;16.62;7.28;;;;;;;3.99;83.65;99726.37;5570456;32;35253;-65
2022/04/05 04:17:11;;;;;;;14.02;7.47;;;;;;;4.05;83.49;99730.25;5570393;32;33985;-64
2022/04/05 04:20:14;;;;;;;14.63;7.35;;;;;;;3.99;83.19;99726.37;5570380;32;34649;-65
2022/04/05 04:23:17;;;;;;;12.15;7.45;;;;;;;4.00;83.75;99730.66;5570247;32;34141;-65
2022/04/05 04:26:22;;;;;;;10.77;6.85;;;;;;;4.10;83.99;99730.66;5570130;32;34544;-65
2022/04/05 04:29:26;;;;;;;11.80;6.65;;;;;;;4.11;82.94;99724.44;5570129;32;34286;-65
2022/04/05 04:32:28;;;;;;;17.02;7.35;;;;;;;4.12;83.50;99721.66;5556305;32;33386;-64
2022/04/05 04:35:32;;;;;;;13.30;7.62;;;;;;;4.20;83.10;99731.44;5570217;32;33938;-64
2022/04/05 04:38:40;;;;;;;12.90;8.02;;;;;;;4.01;84.70;99734.13;5570399;32;33901;-63
2022/04/05 04:41:44;;;;;;;16.15;7.47;;;;;;;3.97;85.51;99733.56;5570159;32;34555;-63
2022/04/05 04:44:47;;;;;;;12.55;7.70;;;;;;;4.10;85.83;99730.66;5569896;32;33990;-64
2022/04/05 04:47:49;;;;;;;13.80;8.40;;;;;;;4.03;86.10;99738.25;5569792;32;34682;-63
2022/04/05 04:50:52;;;;;;;15.32;7.95;;;;;;;4.03;86.03;99738.25;5570466;32;35181;-63
2022/04/05 04:53:54;;;;;;;12.65;8.30;;;;;;;3.94;85.25;99737.31;5570242;32;34678;-62
2022/04/05 04:56:57;;;;;;;17.37;8.82;;;;;;;3.83;85.59;99742.69;5569737;32;34333;-63
2022/04/05 05:00:00;;;;;;;13.90;8.68;;;;;;;3.79;86.41;99740.50;5569942;32;33915;-63
2022/04/05 05:03:02;;;;;;;13.20;7.70;;;;;;;3.79;86.64;99741.34;5569928;32;34079;-63
2022/04/05 05:06:05;;;;;;;16.42;8.20;;;;;;;3.93;86.88;99745.31;5569961;32;33997;-63
2022/04/05 05:09:08;;;;;;;14.05;8.10;;;;;;;3.84;86.64;99736.50;5569156;32;34651;-64
2022/04/05 05:12:11;;;;;;;14.10;8.57;;;;;;;3.94;86.45;99746.97;5568855;32;34662;-63
2022/04/05 05:15:21;;;;;;;14.43;8.70;;;;;;;3.97;86.39;99743.25;5569645;32;34636;-64
2022/04/05 05:18:24;;;;;;;13.60;8.43;;;;;;;4.09;86.57;99740.31;5569683;32;34312;-64
2022/04/05 05:21:26;;;;;;;13.60;8.60;;;;;;;4.21;85.66;99744.41;5569670;32;34180;-64
2022/04/05 05:24:29;;;;;;;15.27;8.98;;;;;;;4.43;83.73;99745.88;5569502;32;33986;-64
2022/04/05 05:27:32;;;;;;;16.30;8.32;;;;;;;4.47;83.36;99749.03;5569111;32;34132;-64
2022/04/05 05:30:35;;;;;;;15.93;7.60;;;;;;;4.55;82.26;99743.91;5569462;32;35307;-64
2022/04/05 05:33:37;;;;;;;21.00;8.32;;;;;;;4.90;80.75;99745.78;5569434;32;34030;-64
2022/04/05 05:36:40;;;;;;;17.10;8.43;;;;;;;4.63;81.22;99741.37;5555874;32;34081;-63
2022/04/05 05:39:43;;;;;;;14.02;7.90;;;;;;;4.88;80.68;99732.81;5569373;32;34007;-64
2022/04/05 05:42:55;;;;;;;12.80;7.90;;;;;;;5.07;79.64;99727.44;5569136;32;33924;-64
2022/04/05 05:45:58;;;;;;;16.35;8.73;;;;;;;4.84;79.86;99736.72;5569009;32;34277;-64
2022/04/05 05:49:01;;;;;;;15.38;8.20;;;;;;;4.92;79.74;99731.53;5568501;31;33979;-64
2022/04/05 05:52:04;;;;;;;13.88;7.50;;;;;;;5.21;78.75;99740.06;5568596;32;34056;-64
2022/04/05 05:55:08;;;;;;;11.05;7.22;;;;;;;5.30;79.27;99740.97;5568564;32;34671;-64
2022/04/05 05:58:11;;;;;;;12.85;7.37;;;;;;;5.47;77.44;99745.38;5555117;32;34274;-64
2022/04/05 06:01:16;;;;;;;13.32;7.15;;;;;;;5.52;75.91;99748.41;5568626;32;34376;-65
2022/04/05 06:04:19;;;;;;;14.32;7.50;;;;;;;5.52;75.33;99763.34;5569320;32;34168;-64
2022/04/05 06:07:21;;;;;;;11.70;7.15;;;;;;;5.65;74.53;99766.44;5568744;32;33953;-64
2022/04/05 06:10:25;;;;;;;15.93;7.28;;;;;;;5.62;74.65;99761.47;5569007;32;34392;-64
2022/04/05 06:13:28;;;;;;;12.20;7.43;;;;;;;5.74;75.02;99768.16;5555349;32;34175;-64
2022/04/05 06:16:31;;;;;;;13.77;6.85;;;;;;;5.91;73.71;99772.59;5568262;32;34131;-65
2022/04/05 06:19:35;;;;;;;14.60;6.97;;;;;;;6.17;72.13;99766.53;5568312;32;34058;-64
2022/04/05 06:22:42;;;;;;;13.70;6.80;;;;;;;6.28;71.88;99772.37;5570354;32;35226;-65
2022/04/05 06:25:45;;;;;;;12.52;7.12;;;;;;;6.42;70.58;99773.63;5570723;32;34830;-64
2022/04/05 06:28:48;;;;;;;14.35;6.65;;;;;;;6.78;68.69;99761.09;5570654;32;34859;-65
2022/04/05 06:31:51;;;;;;;14.52;6.70;;;;;;;7.02;67.81;99765.66;5571105;32;34540;-65
2022/04/05 06:34:58;;;;;;;10.65;5.97;;;;;;;7.19;65.83;99768.19;5570741;32;33928;-65
2022/04/05 06:38:00;;;;;;;9.90;6.25;;;;;;;7.26;66.49;99753.34;5556594;32;34033;-65
2022/04/05 06:41:03;;;;;;;10.10;5.78;;;;;;;7.89;63.57;99755.38;5557457;32;32759;-64
2022/04/05 06:44:07;;;;;;;10.20;5.30;;;;;;;8.57;60.92;99750.50;5570784;32;33932;-64
2022/04/05 06:47:11;;;;;;;9.13;6.28;;;;;;;8.18;62.23;99755.69;5571052;32;34537;-64
2022/04/05 06:50:17;;;;;;;13.75;5.93;;;;;;;7.01;65.66;99750.81;5571165;32;33879;-64
2022/04/05 06:53:20;;;;;;;10.93;6.40;;;;;;;7.49;64.44;99743.00;5570820;32;34354;-65
2022/04/05 06:56:25;;;;;;;15.85;6.28;;;;;;;7.62;64.68;99743.34;5570812;32;33965;-64
2022/04/05 06:59:28;;;;;;;15.27;6.30;;;;;;;7.91;63.69;99742.84;5570380;32;34782;-64
2022/04/05 07:02:30;;;;;;;10.10;5.93;;;;;;;8.02;63.14;99731.94;5570857;32;34286;-64
2022/04/05 07:05:33;;;;;;;10.05;5.25;;;;;;;8.28;61.65;99748.41;5570766;32;34108;-65
2022/04/05 07:08:36;;;;;;;10.88;5.18;;;;;;;8.27;60.89;99753.88;5570770;32;33889;-64
2022/04/05 07:11:39;;;;;;;9.27;5.93;;;;;;;8.21;61.89;99742.16;5570951;32;33878;-65
2022/04/05 07:14:41;;;;;;;10.65;6.05;;;;;;;8.26;60.96;99750.41;5570958;32;35209;-65
2022/04/05 07:17:45;;;;;;;10.40;6.28;;;;;;;8.29;62.64;99746.59;5570926;32;34024;-64
2022/04/05 07:21:06;;;;;;;9.23;5.70;;;;;;;8.02;63.58;99754.91;5570814;32;35243;-64
2022/04/05 07:24:09;;;;;;;9.88;5.65;;;;;;;9.24;60.23;99739.47;5570798;32;34687;-64
2022/04/05 07:27:12;;;;;;;9.35;5.12;;;;;;;10.92;52.90;99739.91;5570773;32;34659;-63
2022/04/05 07:30:16;;;;;;;8.30;5.10;;;;;;;12.77;47.90;99741.34;5556261;32;34068;-64
2022/04/05 07:33:19;;;;;;;8.23;4.80;;;;;;;13.38;44.72;99739.53;5570426;32;33912;-65
2022/04/05 07:36:22;;;;;;;6.87;4.50;;;;;;;14.12;44.18;99741.25;5571109;32;33929;-64
2022/04/05 07:39:25;;;;;;;5.65;4.25;;;;;;;12.78;45.67;99734.97;5570760;32;33944;-64
2022/04/05 07:42:28;;;;;;;7.65;4.32;;;;;;;13.01;45.39;99735.53;5570680;32;33894;-66
2022/04/05 07:45:33;;;;;;;5.68;4.32;;;;;;;13.22;44.94;99736.41;5570777;32;33958;-65
2022/04/05 07:48:36;;;;;;;7.43;3.97;;;;;;;11.38;47.24;99738.59;5570530;32;34618;-63
2022/04/05 07:51:39;;;;;;;5.43;4.00;;;;;;;11.03;48.98;99739.44;5570560;32;34610;-65
2022/04/05 07:54:43;;;;;;;6.57;3.87;;;;;;;11.36;48.22;99750.41;5570418;32;34631;-65
2022/04/05 07:57:47;;;;;;;7.28;3.97;;;;;;;11.20;49.23;99749.63;5570344;32;34197;-65
2022/04/05 08:00:51;;;;;;;6.62;3.85;;;;;;;10.74;49.29;99748.25;5570159;32;34806;-65
2022/04/05 08:03:54;;;;;;;7.28;4.57;;;;;;;10.30;50.71;99743.75;5570162;32;34079;-65
2022/04/05 08:06:56;;;;;;;8.68;4.20;;;;;;;10.22;51.00;99746.47;5570053;32;34830;-64
2022/04/05 08:09:59;;;;;;;5.97;3.67;;;;;;;10.32;51.47;99741.75;5570372;32;34036;-65
2022/04/05 08:13:03;;;;;;;5.60;3.83;;;;;;;10.17;51.01;99734.75;5570249;32;32858;-65
2022/04/05 08:16:06;;;;;;;5.53;4.10;;;;;;;10.28;50.43;99736.97;5570373;32;34094;-64
2022/04/05 08:19:09;;;;;;;5.72;3.40;;;;;;;10.74;49.60;99740.28;5556709;32;34667;-64
2022/04/05 08:22:12;;;;;;;7.78;3.60;;;;;;;11.27;48.05;99736.44;5570257;32;34641;-64
2022/04/05 08:25:17;;;;;;;10.63;3.70;;;;;;;11.43;46.67;99732.69;5556730;32;34590;-64
2022/04/05 08:28:20;;;;;;;4.68;3.25;;;;;;;11.45;47.37;99742.16;5569962;32;33912;-65
2022/04/05 08:31:24;;;;;;;4.53;3.10;;;;;;;12.55;43.92;99745.09;5570031;32;34721;-65
2022/04/05 08:34:27;;;;;;;7.00;3.67;;;;;;;12.05;43.50;99738.22;5556390;32;33967;-65
2022/04/05 08:37:29;;;;;;;5.65;3.35;;;;;;;11.36;44.72;99745.94;5570471;32;34144;-65
2022/04/05 08:40:32;;;;;;;5.37;3.30;;;;;;;10.72;47.29;99743.13;5569700;32;34656;-64
2022/04/05 08:43:37;;;;;;;4.70;3.20;;;;;;;10.64;47.18;99740.56;5569197;32;34259;-64
2022/04/05 08:46:40;;;;;;;4.07;3.25;;;;;;;11.03;46.17;99734.94;5556689;32;34117;-64
2022/04/05 08:49:43;;;;;;;7.85;3.30;;;;;;;11.41;45.46;99730.25;5556561;32;33931;-64
2022/04/05 08:52:47;;;;;;;6.37;3.53;;;;;;;11.40;44.92;99735.75;5570204;32;33992;-64
2022/04/05 08:55:53;;;;;;;4.85;3.30;;;;;;;11.21;45.52;99734.53;5570148;32;34250;-64
2022/04/05 08:58:56;;;;;;;4.87;3.00;;;;;;;11.53;45.20;99734.03;5569650;32;34553;-65
2022/04/05 09:01:59;;;;;;;4.68;3.30;;;;;;;11.31;44.59;99724.44;5569881;32;33871;-65
2022/04/05 09:05:04;;;;;;;5.57;3.03;;;;;;;11.22;46.46;99714.94;5570009;32;35112;-65
2022/04/05 09:08:23;;;;;;;5.07;2.85;;;;;;;11.79;44.18;99725.53;5569925;32;34622;-65
2022/04/05 09:11:29;;;;;;;6.15;3.72;;;;;;;12.10;45.04;99727.84;5570173;32;34247;-66
2022/04/05 09:14:41;;;;;;;6.25;3.40;;;;;;;11.86;43.37;99726.41;5570036;32;33872;-65
2022/04/05 09:17:46;;;;;;;6.00;3.53;;;;;;;11.76;44.94;99721.41;5556142;32;34494;-65
2022/04/05 09:20:49;;;;;;;6.15;3.10;;;;;;;11.61;47.01;99723.31;5569643;32;35239;-64
2022/04/05 09:24:04;;;;;;;5.70;3.72;;;;;;;11.31;47.16;99721.78;5555754;32;34130;-64
2022/04/05 09:27:07;;;;;;;5.53;3.45;;;;;;;11.46;46.59;99721.72;5555883;32;34554;-65
2022/04/05 09:30:14;;;;;;;6.68;2.78;;;;;;;11.04;46.07;99715.34;5569210;32;33895;-64
2022/04/05 09:33:17;;;;;;;5.45;3.10;;;;;;;10.91;46.36;99723.16;5569222;32;34226;-65
2022/04/05 09:36:33;;;;;;;3.83;2.30;;;;;;;10.76;46.09;99725.00;5569082;32;34262;-65
2022/04/05 09:39:35;;;;;;;3.97;2.83;;;;;;;10.62;45.74;99716.06;5555769;32;34688;-65
2022/04/05 09:42:57;;;;;;;3.85;2.45;;;;;;;10.49;45.83;99715.88;5569383;32;33964;-66
2022/04/05 09:46:01;;;;;;;3.83;2.65;;;;;;;10.47;46.03;99715.22;5569384;32;34641;-65
2022/04/05 09:49:15;;;;;;;3.95;2.65;;;;;;;10.61;46.25;99711.75;5569507;32;34006;-66
2022/04/05 09:52:22;;;;;;;5.15;2.80;;;;;;;10.84;46.48;99712.44;5569390;32;34596;-65
2022/04/05 09:55:30;;;;;;;5.57;2.60;;;;;;;11.09;45.95;99707.62;5569283;32;34126;-65
2022/04/05 09:58:42;;;;;;;5.37;2.60;;;;;;;11.27;45.84;99713.38;5569233;32;34544;-65
2022/04/05 10:01:46;;;;;;;5.55;2.78;;;;;;;11.59;45.76;99712.03;5570478;32;34043;-66
2022/04/05 10:05:09;;;;;;;3.72;2.70;;;;;;;11.61;46.65;99725.97;5569174;32;34826;-65
2022/04/05 10:08:13;;;;;;;4.75;3.45;;;;;;;11.48;47.58;99717.84;5569441;32;34042;-65
2022/04/05 10:11:16;;;;;;;5.22;3.42;;;;;;;11.66;47.47;99715.59;5569706;32;34095;-62
2022/04/05 10:14:20;;;;;;;7.22;3.25;;;;;;;11.26;48.33;99719.69;5569377;32;34135;-65
2022/04/05 10:17:26;;;;;;;6.60;3.08;;;;;;;11.32;48.92;99728.72;5568876;32;34627;-64
2022/04/05 10:20:30;;;;;;;4.60;3.20;;;;;;;11.29;49.37;99734.41;5569021;32;34264;-64
2022/04/05 10:23:34;;;;;;;5.68;3.33;;;;;;;11.29;49.66;99726.44;5569116;32;34027;-64
2022/04/05 10:26:39;;;;;;;6.12;3.35;;;;;;;11.65;48.92;99718.44;5568939;32;34033;-65
2022/04/05 10:29:43;;;;;;;6.32;3.60;;;;;;;11.81;48.38;99712.88;5568147;32;33926;-65
2022/04/05 10:33:07;;;;;;;5.37;2.92;;;;;;;12.14;47.51;99731.75;5568597;32;34348;-64
2022/04/05 10:36:10;;;;;;;5.75;3.28;;;;;;;12.50;46.80;99720.91;5568641;32;34820;-65
2022/04/05 10:39:22;;;;;;;3.47;2.50;;;;;;;12.70;45.66;99726.34;5568060;32;35374;-65
2022/04/05 10:42:36;;;;;;;5.20;2.72;;;;;;;13.71;42.56;99725.44;5568231;32;33984;-64
2022/04/05 10:45:43;;;;;;;4.07;2.67;;;;;;;13.19;43.15;99724.34;5568636;32;33840;-67
2022/04/05 10:48:56;;;;;;;5.30;3.20;;;;;;;12.18;45.37;99723.19;5554736;32;33874;-65
2022/04/05 10:52:12;;;;;;;5.25;2.87;;;;;;;12.15;46.21;99718.25;5554368;32;34103;-66
2022/04/05 10:55:20;;;;;;;5.32;3.12;;;;;;;12.51;45.30;99714.59;5567584;32;34579;-64
2022/04/05 10:58:23;;;;;;;4.30;2.70;;;;;;;12.85;45.26;99714.56;5568121;32;35150;-64
2022/04/05 11:01:39;;;;;;;7.28;3.15;;;;;;;13.28;44.53;99707.16;5568441;32;34071;-65
2022/04/05 11:04:42;;;;;;;5.00;3.10;;;;;;;13.99;42.66;99709.28;5567687;32;34399;-65
2022/04/05 11:08:12;;;;;;;4.05;2.70;;;;;;;14.98;42.08;99705.34;5569598;32;34307;-65
2022/04/05 11:11:15;;;;;;;4.28;2.80;;;;;;;15.32;40.99;99700.66;5561505;32;33990;-65
2022/04/05 11:14:58;;;;;;;3.28;2.62;;;;;;;14.75;43.04;99723.72;5570440;32;34704;-64
2022/04/05 11:18:02;;;;;;;5.72;2.75;;;;;;;14.53;42.84;99714.31;5472398;32;34925;-66
2022/04/05 11:21:08;;;;;;;4.03;2.78;;;;;;;13.53;44.52;99696.75;5472514;32;33891;-65
2022/04/05 11:24:11;;;;;;;4.50;2.90;;;;;;;13.09;46.00;99707.88;5472801;32;33914;-65
2022/04/05 11:27:32;;;;;;;3.28;2.12;;;;;;;15.33;42.06;99704.97;5472830;32;33871;-65
2022/04/05 11:30:45;;;;;;;3.25;2.03;;;;;;;16.82;38.23;99708.41;5472297;32;34473;-65
2022/04/05 11:33:48;;;;;;;3.58;1.90;;;;;;;17.08;37.46;99709.94;5472439;32;34058;-65
2022/04/05 11:36:50;;;;;;;3.40;2.20;;;;;;;15.60;40.13;99709.94;5472542;32;33929;-65
2022/04/05 11:39:53;;;;;;;4.10;2.03;;;;;;;14.46;43.58;99721.53;5472328;32;34124;-65
2022/04/05 11:43:02;;;;;;;2.03;1.80;;;;;;;15.26;42.41;99721.03;5460192;32;34059;-65
2022/04/05 11:46:07;;;;;;;;;;;;;;;17.22;38.46;99714.09;5472901;32;33909;-65
2022/04/05 11:49:14;;;;;;;2.70;1.50;;;;;;;18.35;36.52;99719.37;5472333;32;34085;-64
2022/04/05 11:52:27;;;;;;;3.70;1.70;;;;;;;19.27;35.06;99721.03;5540203;32;34496;-65
2022/04/05 11:58:53;;;;;;;3.08;1.55;;;;;;;18.47;36.61;99737.09;5570202;32;33892;-66
2022/04/05 12:02:01;;;;;;;5.07;1.75;;;;;;;17.05;40.27;99731.81;5570448;32;33936;-66
2022/04/05 12:05:05;;;;;;;2.03;1.65;;;;;;;15.47;42.53;99736.75;5570448;32;34209;-66
2022/04/05 12:08:12;;;;;;;2.12;1.52;;;;;;;15.48;43.16;99726.87;5570115;32;34621;-66
2022/04/05 12:11:17;;;;;;;3.15;1.70;;;;;;;14.69;45.71;99738.72;5570143;32;34944;-66
2022/04/05 12:14:24;;;;;;;3.00;1.70;;;;;;;13.38;48.40;99731.56;5570017;32;33983;-66
2022/04/05 12:17:29;;;;;;;3.17;1.58;;;;;;;13.50;48.25;99718.47;5556402;32;34638;-65
2022/04/05 12:20:32;;;;;;;2.60;1.58;;;;;;;13.99;48.87;99731.41;5569126;32;34025;-65
2022/04/05 12:23:37;;;;;;;1.92;1.60;;;;;;;15.93;43.62;99716.88;5556015;32;33918;-65
2022/04/05 12:26:40;;;;;;;1.60;1.50;;;;;;;15.94;44.10;99716.69;5569987;32;34520;-65
2022/04/05 12:29:42;;;;;;;2.87;1.90;;;;;;;15.32;44.95;99717.50;5569549;32;34692;-65
2022/04/05 12:32:45;;;;;;;2.05;1.55;;;;;;;14.98;46.48;99710.69;5569796;32;33927;-65
2022/04/05 12:35:48;;;;;;;2.25;1.40;;;;;;;16.46;42.23;99703.81;5569938;32;33956;-65
2022/04/05 12:38:51;;;;;;;2.25;1.55;;;;;;;15.81;43.80;99695.41;5569956;32;34751;-64
2022/04/05 12:41:57;;;;;;;1.85;1.40;;;;;;;18.06;38.93;99694.22;5556256;32;34836;-65
2022/04/05 12:45:00;;;;;;;2.35;1.40;;;;;;;19.47;36.14;99693.72;5570094;32;33448;-65
2022/04/05 12:48:14;;;;;;;1.27;1.17;;;;;;;18.38;37.13;99692.84;5570009;32;34764;-67
2022/04/05 12:51:31;;;;;;;2.05;1.10;;;;;;;18.59;37.37;99691.44;5569915;32;34255;-67
2022/04/05 12:54:35;;;;;;;1.70;1.08;;;;;;;21.44;31.97;99690.31;5569994;32;35298;-66
2022/04/05 12:57:40;;;;;;;1.77;1.02;;;;;;;18.12;37.03;99690.63;5570170;32;33989;-65
2022/04/05 13:00:44;;;;;;;1.83;1.02;;;;;;;18.73;36.03;99692.00;5556492;32;34097;-66
2022/04/05 13:03:47;;;;;;;1.37;1.20;;;;;;;15.62;42.16;99681.16;5569990;32;34877;-66
2022/04/05 13:06:53;;;;;;;1.37;1.10;;;;;;;14.51;46.92;99687.87;5569723;32;34284;-66
2022/04/05 13:10:08;;;;;;;;;;;;;;;15.00;45.66;99679.25;5569869;32;33979;-66
2022/04/05 13:13:22;;;;;;;1.77;1.20;;;;;;;14.66;46.72;99675.09;5569793;32;34462;-65
2022/04/05 13:16:27;;;;;;;1.87;1.30;;;;;;;14.27;47.83;99680.50;5569782;32;34613;-65
2022/04/05 13:19:31;;;;;;;1.65;1.30;;;;;;;14.04;49.00;99680.94;5569416;32;35285;-66
2022/04/05 13:22:34;;;;;;;2.10;1.55;;;;;;;14.43;47.11;99695.25;5569564;32;33454;-65
2022/04/05 13:25:39;;;;;;;2.17;1.40;;;;;;;14.46;47.64;99687.69;5569649;32;34721;-65
2022/04/05 13:28:42;;;;;;;2.87;1.80;;;;;;;14.15;48.63;99684.81;5569757;32;34339;-64
2022/04/05 13:31:55;;;;;;;2.15;1.58;;;;;;;14.06;48.47;99681.56;5568895;32;34102;-66
2022/04/05 13:34:58;;;;;;;3.17;1.60;;;;;;;14.05;49.18;99671.91;5569309;32;35123;-65
2022/04/05 13:38:02;;;;;;;3.50;1.80;;;;;;;15.99;44.54;99675.91;5568481;32;34563;-66
2022/04/05 13:41:07;;;;;;;2.53;1.45;;;;;;;17.12;41.41;99687.00;5568775;32;33984;-65
2022/04/05 13:44:11;;;;;;;2.67;1.60;;;;;;;18.61;38.09;99678.59;5568671;32;34345;-64
2022/04/05 13:47:14;;;;;;;4.55;1.85;;;;;;;20.10;35.50;99674.56;5568931;32;33935;-64
2022/04/05 13:50:17;;;;;;;1.70;1.40;;;;;;;21.55;32.14;99670.41;5568621;32;33887;-64
2022/04/05 13:53:19;;;;;;;2.12;1.73;;;;;;;22.34;31.06;99671.31;5569076;32;34963;-66
2022/04/05 13:56:25;;;;;;;3.03;1.70;;;;;;;22.31;31.02;99663.75;5568883;32;34061;-65
2022/04/05 13:59:28;;;;;;;2.37;1.45;;;;;;;21.55;32.20;99665.84;5568792;32;33878;-67
2022/04/05 14:02:31;;;;;;;2.10;1.50;;;;;;;21.07;32.29;99660.47;5568180;32;34940;-66
2022/04/05 14:05:34;;;;;;;3.10;1.50;;;;;;;21.35;31.96;99668.34;5568521;32;33936;-66
2022/04/05 14:08:37;;;;;;;2.50;1.50;;;;;;;21.31;32.53;99667.22;5568550;32;34113;-66
2022/04/05 14:11:43;;;;;;;1.90;1.30;;;;;;;21.20;32.67;99657.44;5568247;32;34675;-66
2022/04/05 14:14:45;;;;;;;2.85;1.40;;;;;;;21.20;32.43;99649.34;5568548;32;35485;-67
2022/04/05 14:17:48;;;;;;;1.50;1.00;;;;;;;22.29;30.28;99651.56;5568456;32;34134;-66
2022/04/05 14:20:51;;;;;;;2.25;1.17;;;;;;;20.89;32.99;99642.75;5568449;32;34533;-65
2022/04/05 14:23:55;;;;;;;2.85;1.30;;;;;;;19.62;34.75;99634.78;5554124;32;34532;-66
2022/04/05 14:26:57;;;;;;;1.67;1.20;;;;;;;19.86;34.78;99632.75;5568307;32;35329;-66
2022/04/05 14:30:01;;;;;;;2.75;1.30;;;;;;;18.50;37.77;99631.03;5567977;32;34050;-66
2022/04/05 14:33:03;;;;;;;1.30;1.15;;;;;;;18.25;39.19;99642.87;5567496;32;35321;-65